Time;durP1;ratioP1;P1;durP2;ratioP2;P2;SDS_P1;SDS_P2;PMS_P1;PMS_P2;Temp;Humidity;BMP_temperature;BMP_pressure;BME280_temperature;BME280_humidity;BME280_pressure;Samples;Min_cycle;Max_cycle;Signal;HPM_P1;HPM_P2
2022/12/14 00:01:14;;;;;;;73.45;42.08;;;;;;;-4.79;100.00;159333.81;5028743;28;20045;-62
2022/12/14 00:03:40;;;;;;;55.22;35.03;;;;;;;-4.79;100.00;159333.81;5030568;28;20553;-63
2022/12/14 00:06:17;;;;;;;62.78;38.45;;;;;;;-4.76;100.00;159340.47;5048089;28;20132;-62
2022/12/14 00:08:42;;;;;;;62.45;35.97;;;;;;;-4.75;100.00;159341.84;5050502;28;20104;-62
2022/12/14 00:11:08;;;;;;;74.72;41.97;;;;;;;-4.74;100.00;159345.81;5048510;28;20466;-62
2022/12/14 00:13:34;;;;;;;60.50;39.00;;;;;;;-4.78;100.00;159336.47;5049907;28;20021;-62
2022/12/14 00:16:09;;;;;;;54.42;35.10;;;;;;;-4.75;100.00;159341.84;5048576;28;20045;-62
2022/12/14 00:18:35;;;;;;;50.15;33.00;;;;;;;-4.76;100.00;159340.47;5048208;28;20029;-62
2022/12/14 00:21:05;;;;;;;55.53;35.80;;;;;;;-4.71;100.00;159352.50;5048082;28;20041;-62
2022/12/14 00:23:31;;;;;;;54.72;33.80;;;;;;;-4.78;100.00;159336.47;5053670;28;20454;-62
2022/12/14 00:25:56;;;;;;;59.85;37.70;;;;;;;-4.69;100.00;159357.84;5045621;28;20021;-62
2022/12/14 00:28:22;;;;;;;51.47;30.42;;;;;;;-4.67;100.00;159364.53;5053075;28;20526;-62
2022/12/14 00:30:47;;;;;;;57.50;32.92;;;;;;;-4.69;100.00;159357.84;5052152;28;20048;-62
2022/12/14 00:33:12;;;;;;;78.68;49.72;;;;;;;-4.67;100.00;159363.22;5052907;28;20029;-62
2022/12/14 00:35:38;;;;;;;56.17;35.97;;;;;;;-4.70;100.00;159356.53;5051628;28;20048;-62
2022/12/14 00:38:03;;;;;;;61.03;32.35;;;;;;;-4.70;100.00;159355.19;5053176;28;20021;-62
2022/12/14 00:40:28;;;;;;;58.00;34.70;;;;;;;-4.70;100.00;159356.53;5053515;28;20361;-62
2022/12/14 00:42:54;;;;;;;56.88;36.72;;;;;;;-4.69;100.00;159357.84;5051281;28;20068;-62
2022/12/14 00:45:19;;;;;;;56.90;32.08;;;;;;;-4.70;100.00;159355.19;5044007;28;20041;-62
2022/12/14 00:47:44;;;;;;;86.85;47.15;;;;;;;-4.69;100.00;159357.84;5031632;28;20033;-61
2022/12/14 00:50:10;;;;;;;57.55;37.60;;;;;;;-4.75;100.00;159341.84;5032961;28;20033;-63
2022/12/14 00:52:35;;;;;;;45.55;30.60;;;;;;;-4.75;100.00;159341.84;5031679;28;20045;-62
2022/12/14 00:55:00;;;;;;;69.28;37.40;;;;;;;-4.79;100.00;159333.81;5032926;28;20026;-62
2022/12/14 00:57:28;;;;;;;49.08;31.30;;;;;;;-4.78;100.00;159336.47;5031523;28;20044;-62
2022/12/14 00:59:53;;;;;;;46.00;31.75;;;;;;;-4.76;100.00;159339.16;5034076;28;20021;-63
2022/12/14 01:02:19;;;;;;;52.42;32.00;;;;;;;-4.78;100.00;159336.47;5031235;28;20037;-61
2022/12/14 01:04:44;;;;;;;46.72;27.48;;;;;;;-4.80;100.00;159331.13;5033149;28;20028;-64
2022/12/14 01:07:09;;;;;;;73.65;42.30;;;;;;;-4.78;100.00;159336.47;5030855;28;20041;-63
2022/12/14 01:09:35;;;;;;;45.58;28.70;;;;;;;-4.81;100.00;159328.50;5032840;28;20026;-64
2022/12/14 01:12:00;;;;;;;41.85;28.55;;;;;;;-4.79;100.00;159333.81;5031093;28;20049;-64
2022/12/14 01:14:25;;;;;;;47.05;28.85;;;;;;;-4.77;100.00;159337.84;5032489;28;20484;-64
2022/12/14 01:16:51;;;;;;;53.50;29.73;;;;;;;-4.83;100.00;159323.16;5031235;28;20034;-63
2022/12/14 01:19:16;;;;;;;60.17;35.22;;;;;;;-4.79;100.00;159333.81;5032691;28;20152;-60
2022/12/14 01:21:41;;;;;;;46.65;28.33;;;;;;;-4.79;100.00;159333.81;5030979;28;20037;-60
2022/12/14 01:24:07;;;;;;;46.67;29.98;;;;;;;-4.78;100.00;159335.16;5032383;28;20044;-61
2022/12/14 01:26:36;;;;;;;143.07;73.00;;;;;;;-4.78;100.00;159336.47;5031164;28;20045;-61
2022/12/14 01:29:02;;;;;;;42.92;26.98;;;;;;;-4.81;100.00;159328.50;5032284;28;20032;-61
2022/12/14 01:31:31;;;;;;;50.15;28.08;;;;;;;-4.81;100.00;159328.50;5030817;28;20048;-61
2022/12/14 01:33:56;;;;;;;40.97;26.65;;;;;;;-4.80;100.00;159329.81;5031642;28;20439;-61
2022/12/14 01:36:24;;;;;;;38.40;26.92;;;;;;;-4.83;100.00;159323.16;5030698;28;20041;-61
2022/12/14 01:38:55;;;;;;;49.90;28.77;;;;;;;-4.86;100.00;159315.13;5032362;28;20411;-61
2022/12/14 01:41:36;;;;;;;46.60;29.08;;;;;;;-4.91;100.00;159301.78;5031091;28;20037;-61
2022/12/14 01:44:03;;;;;;;41.97;27.08;;;;;;;-4.87;100.00;159312.44;5032712;28;20056;-61
2022/12/14 01:46:50;;;;;;;44.75;28.05;;;;;;;-4.88;100.00;159309.81;5030543;28;20105;-61
2022/12/14 01:49:32;;;;;;;46.03;25.60;;;;;;;-4.90;100.00;159304.47;5031899;28;20469;-61
2022/12/14 01:52:05;;;;;;;42.35;28.30;;;;;;;-4.90;100.00;159304.47;5030386;28;20044;-61
2022/12/14 01:54:35;;;;;;;45.45;25.92;;;;;;;-4.87;100.00;159312.44;5031989;28;20025;-61
2022/12/14 01:57:01;;;;;;;39.63;25.00;;;;;;;-4.88;100.00;159309.81;5030030;28;20041;-62
2022/12/14 01:59:32;;;;;;;38.65;23.95;;;;;;;-4.89;100.00;159307.13;5031997;28;20498;-62
2022/12/14 02:02:01;;;;;;;49.95;30.83;;;;;;;-4.92;100.00;159299.09;5030386;28;20072;-62
2022/12/14 02:04:26;;;;;;;48.17;28.38;;;;;;;-4.91;100.00;159301.78;5031655;28;20060;-62
2022/12/14 02:06:53;;;;;;;41.03;25.48;;;;;;;-4.97;100.00;159285.75;5030210;28;20053;-62
2022/12/14 02:09:24;;;;;;;39.25;23.70;;;;;;;-5.01;100.00;159275.06;5031620;28;20021;-62
2022/12/14 02:12:01;;;;;;;39.28;26.00;;;;;;;-5.01;100.00;159276.41;5031057;28;20053;-62
2022/12/14 02:14:27;;;;;;;46.42;25.58;;;;;;;-5.07;100.00;159260.41;5031650;28;20036;-63
2022/12/14 02:16:54;;;;;;;43.95;25.13;;;;;;;-5.06;100.00;159263.03;5031832;28;20042;-63
2022/12/14 02:19:20;;;;;;;36.38;22.40;;;;;;;-5.10;100.00;159253.69;5050752;28;20471;-62
2022/12/14 02:22:15;;;;;;;37.47;25.23;;;;;;;-5.15;100.00;159240.34;5050009;28;20037;-62
2022/12/14 02:24:59;;;;;;;38.38;23.15;;;;;;;-5.20;100.00;159227.03;5051408;28;20032;-63
2022/12/14 02:28:01;;;;;;;37.05;24.60;;;;;;;-5.25;100.00;159213.69;5047915;28;20037;-61
2022/12/14 02:30:33;;;;;;;57.03;31.92;;;;;;;-5.30;100.00;159201.69;5051439;28;20021;-61
2022/12/14 02:33:23;;;;;;;50.17;25.83;;;;;;;-5.30;100.00;159200.31;5049701;28;20048;-61
2022/12/14 02:36:00;;;;;;;51.80;30.55;;;;;;;-5.39;100.00;159176.28;5049461;28;20480;-60
2022/12/14 02:39:13;;;;;;;41.67;24.00;;;;;;;-5.38;100.00;159178.97;5050841;28;20029;-61
2022/12/14 02:42:16;;;;;;;47.05;27.83;;;;;;;-5.43;100.00;159166.94;5043949;28;20051;-61
2022/12/14 02:44:56;;;;;;;42.20;25.02;;;;;;;-5.45;100.00;159161.63;5031103;28;20051;-61
2022/12/14 02:47:38;;;;;;;48.55;26.45;;;;;;;-5.47;100.00;159157.59;5029438;28;20048;-61
2022/12/14 02:50:28;;;;;;;47.85;29.20;;;;;;;-5.50;100.00;159148.25;5030581;28;20065;-61
2022/12/14 02:52:59;;;;;;;41.08;24.80;;;;;;;-5.54;100.00;159138.91;5029489;28;20400;-61
2022/12/14 02:55:29;;;;;;;39.25;25.58;;;;;;;-5.56;100.00;159133.63;5031448;28;20029;-61
2022/12/14 02:58:02;;;;;;;42.20;27.17;;;;;;;-5.61;100.00;159120.22;5028868;28;20034;-63
2022/12/14 03:00:32;;;;;;;35.67;25.38;;;;;;;-5.64;100.00;159112.25;5031030;28;20044;-62
2022/12/14 03:02:58;;;;;;;45.08;26.35;;;;;;;-5.69;100.00;159098.88;5029111;28;20038;-63
2022/12/14 03:05:23;;;;;;;37.85;25.65;;;;;;;-5.85;100.00;159057.53;5030681;28;20057;-62
2022/12/14 03:07:58;;;;;;;39.97;26.30;;;;;;;-5.76;100.00;159082.88;5030302;28;20404;-62
2022/12/14 03:11:00;;;;;;;36.60;24.88;;;;;;;-5.82;100.00;159066.88;5030974;28;20026;-63
2022/12/14 03:13:41;;;;;;;39.30;24.27;;;;;;;-5.87;100.00;159052.19;5007970;28;20415;-62
2022/12/14 03:16:26;;;;;;;38.70;24.65;;;;;;;-5.94;100.00;159036.19;5029140;28;20129;-62
2022/12/14 03:19:09;;;;;;;45.33;27.17;;;;;;;-6.01;100.00;159017.56;5030943;28;20090;-62
2022/12/14 03:21:38;;;;;;;38.97;25.23;;;;;;;-6.03;100.00;159010.91;5029370;28;20056;-63
2022/12/14 03:24:09;;;;;;;38.30;23.20;;;;;;;-6.09;100.00;158997.56;5031372;28;20108;-63
2022/12/14 03:26:53;;;;;;;48.33;25.20;;;;;;;-6.15;100.00;158981.59;5028880;28;20038;-63
2022/12/14 03:29:33;;;;;;;43.60;25.02;;;;;;;-6.22;100.00;158962.91;5030716;28;20127;-63
2022/12/14 03:32:02;;;;;;;33.88;24.50;;;;;;;-6.25;100.00;158954.88;5028773;28;20073;-62
2022/12/14 03:34:33;;;;;;;44.90;26.80;;;;;;;-6.34;100.00;158930.88;5030662;28;20116;-63
2022/12/14 03:37:17;;;;;;;42.38;25.15;;;;;;;-6.31;100.00;158938.91;5028866;28;20044;-63
2022/12/14 03:39:44;;;;;;;41.72;25.27;;;;;;;-6.37;100.00;158925.53;5030569;28;20025;-63
2022/12/14 03:42:17;;;;;;;42.22;26.90;;;;;;;-6.38;100.00;158922.91;5028373;28;20040;-62
2022/12/14 03:45:06;;;;;;;45.75;26.05;;;;;;;-6.42;100.00;158912.19;5030524;28;20057;-62
2022/12/14 03:47:59;;;;;;;43.22;26.73;;;;;;;-6.44;100.00;158906.84;5028759;28;20488;-62
2022/12/14 03:50:42;;;;;;;43.75;25.15;;;;;;;-6.45;100.00;158904.22;5030661;28;20025;-63
2022/12/14 03:53:25;;;;;;;32.42;22.60;;;;;;;-6.47;100.00;158897.53;5028168;28;21570;-62
2022/12/14 03:55:58;;;;;;;34.58;21.77;;;;;;;-6.50;100.00;158890.88;5028897;28;20031;-62
2022/12/14 03:58:32;;;;;;;37.40;24.92;;;;;;;-6.46;100.00;158900.19;5034156;28;20028;-63
2022/12/14 04:01:27;;;;;;;40.45;24.42;;;;;;;-6.48;100.00;158896.22;5032436;28;20037;-63
2022/12/14 04:04:04;;;;;;;33.88;22.15;;;;;;;-6.48;100.00;158894.91;5027842;28;20040;-62
2022/12/14 04:06:35;;;;;;;37.75;22.75;;;;;;;-6.51;100.00;158888.19;5033791;28;20045;-62
2022/12/14 04:09:12;;;;;;;32.35;21.42;;;;;;;-6.50;100.00;158890.88;5033547;28;20496;-63
2022/12/14 04:20:26;;;;;;;36.35;22.88;;;;;;;-6.56;100.00;158876.22;5033752;28;20064;-63
2022/12/14 04:23:00;;;;;;;31.15;21.52;;;;;;;-6.56;100.00;158874.88;5032249;28;20084;-61
2022/12/14 04:31:15;;;;;;;39.28;22.95;;;;;;;-6.68;100.00;158842.88;5032109;28;20091;-62
2022/12/14 04:33:53;;;;;;;41.78;25.83;;;;;;;-6.72;100.00;158834.88;5033265;28;20052;-62
2022/12/14 04:36:28;;;;;;;;;;;;;;;-6.74;100.00;158829.53;5032749;28;20534;-62
2022/12/14 04:39:00;;;;;;;44.53;23.58;;;;;;;-6.81;100.00;158810.84;5033218;28;19953;-61
2022/12/14 04:41:32;;;;;;;38.17;23.75;;;;;;;-6.85;100.00;158800.22;5031706;28;20076;-61
2022/12/14 04:44:01;;;;;;;41.53;21.40;;;;;;;-6.85;100.00;158800.22;5033143;28;20032;-62
2022/12/14 04:46:31;;;;;;;31.33;21.70;;;;;;;-6.91;100.00;158785.53;5031814;28;20041;-61
2022/12/14 04:48:59;;;;;;;44.20;21.13;;;;;;;-6.95;100.00;158773.53;5033043;28;20139;-61
2022/12/14 04:51:35;;;;;;;26.40;17.92;;;;;;;-6.97;100.00;158768.25;5031766;28;20042;-63
2022/12/14 04:54:15;;;;;;;44.88;24.38;;;;;;;-7.10;100.00;158736.22;5033027;28;20053;-63
2022/12/14 04:56:54;;;;;;;33.72;22.67;;;;;;;-7.05;100.00;158749.59;5032534;28;20520;-63
2022/12/14 04:59:21;;;;;;;39.10;22.33;;;;;;;-7.02;100.00;158757.56;5033260;28;20494;-63
2022/12/14 05:02:24;;;;;;;31.00;19.70;;;;;;;-7.01;100.00;158760.22;5031313;28;20033;-63
2022/12/14 05:05:05;;;;;;;31.83;20.02;;;;;;;-6.99;100.00;158764.22;5044982;28;20025;-62
2022/12/14 05:07:35;;;;;;;30.65;19.98;;;;;;;-6.99;100.00;158762.91;5037004;28;20029;-62
2022/12/14 05:10:15;;;;;;;36.28;21.75;;;;;;;-7.01;100.00;158758.91;5039324;28;20476;-62
2022/12/14 05:12:49;;;;;;;44.42;22.20;;;;;;;-7.07;100.00;158744.25;5033708;28;20045;-62
2022/12/14 05:15:20;;;;;;;33.50;21.70;;;;;;;-7.04;100.00;158752.25;5040254;28;20025;-62
2022/12/14 05:17:46;;;;;;;33.58;19.88;;;;;;;-7.03;100.00;158754.88;5050888;28;20037;-62
2022/12/14 05:20:17;;;;;;;44.85;26.25;;;;;;;-7.01;100.00;158758.91;5043262;28;20075;-62
2022/12/14 05:22:43;;;;;;;31.38;21.88;;;;;;;-7.04;100.00;158752.25;5031179;28;20037;-62
2022/12/14 05:25:09;;;;;;;33.55;20.45;;;;;;;-7.01;100.00;158758.91;5032530;28;20036;-62
2022/12/14 05:27:34;;;;;;;58.97;36.08;;;;;;;-7.02;100.00;158757.56;5038614;28;20526;-62
2022/12/14 05:30:00;;;;;;;54.30;30.92;;;;;;;-7.04;100.00;158752.25;5052238;28;20020;-62
2022/12/14 05:32:27;;;;;;;32.40;24.45;;;;;;;-7.08;100.00;158741.56;5050455;28;20041;-62
2022/12/14 05:34:53;;;;;;;36.72;19.63;;;;;;;-7.17;100.00;158717.56;5052247;28;20159;-62
2022/12/14 05:37:18;;;;;;;28.70;18.08;;;;;;;-7.33;100.00;158677.59;5050841;28;20064;-62
2022/12/14 05:39:44;;;;;;;29.58;20.95;;;;;;;-7.17;100.00;158718.91;5050907;28;20487;-62
2022/12/14 05:42:09;;;;;;;34.63;20.15;;;;;;;-7.19;100.00;158712.28;5038482;28;20045;-62
2022/12/14 05:44:34;;;;;;;29.98;19.45;;;;;;;-7.20;100.00;158710.91;5052140;28;20041;-62
2022/12/14 05:47:00;;;;;;;30.55;19.27;;;;;;;-7.20;100.00;158709.59;5050190;28;20521;-62
2022/12/14 05:49:25;;;;;;;30.83;18.35;;;;;;;-7.25;100.00;158696.22;5051949;28;20036;-62
2022/12/14 05:51:50;;;;;;;27.90;17.02;;;;;;;-7.34;100.00;158674.97;5050464;28;20033;-62
2022/12/14 05:54:16;;;;;;;26.55;16.67;;;;;;;-7.36;100.00;158669.63;5051572;28;20024;-62
2022/12/14 05:56:41;;;;;;;31.75;18.65;;;;;;;-7.40;100.00;158658.94;5050641;28;20428;-62
2022/12/14 05:59:06;;;;;;;31.27;19.40;;;;;;;-7.38;100.00;158664.28;5051693;28;20021;-63
2022/12/14 06:01:32;;;;;;;25.92;18.20;;;;;;;-7.39;100.00;158661.59;5049999;28;20496;-60
2022/12/14 06:03:57;;;;;;;36.03;20.15;;;;;;;-7.41;100.00;158654.94;5051966;28;20095;-60
2022/12/14 06:06:22;;;;;;;29.33;20.20;;;;;;;-7.48;100.00;158637.59;5050275;28;20404;-60
2022/12/14 06:08:48;;;;;;;34.28;19.92;;;;;;;-7.52;100.00;158626.97;5051269;28;20033;-60
2022/12/14 06:11:16;;;;;;;32.47;18.88;;;;;;;-7.57;100.00;158614.97;5050239;28;20037;-60
2022/12/14 06:13:42;;;;;;;23.83;17.87;;;;;;;-7.61;100.00;158602.97;5052104;28;20047;-60
2022/12/14 06:16:07;;;;;;;27.55;17.00;;;;;;;-7.66;100.00;158592.34;5049438;28;20515;-60
2022/12/14 06:18:33;;;;;;;29.80;19.48;;;;;;;-7.70;100.00;158581.66;5051483;28;20028;-60
2022/12/14 06:20:58;;;;;;;38.30;19.42;;;;;;;-7.75;100.00;158568.34;5049753;28;20067;-60
2022/12/14 06:23:23;;;;;;;28.10;18.67;;;;;;;-7.76;100.00;158564.38;5051031;28;20405;-61
2022/12/14 06:25:55;;;;;;;33.55;20.50;;;;;;;-7.78;100.00;158560.34;5039560;28;20313;-60
2022/12/14 06:28:21;;;;;;;32.38;21.33;;;;;;;-7.82;100.00;158551.00;5031425;28;20021;-60
2022/12/14 06:30:47;;;;;;;30.10;19.23;;;;;;;-7.84;100.00;158544.34;5029818;28;20025;-60
2022/12/14 06:33:12;;;;;;;39.55;20.08;;;;;;;-7.87;100.00;158537.72;5031161;28;20033;-60
2022/12/14 06:35:45;;;;;;;38.58;21.00;;;;;;;-7.95;100.00;158515.06;5029850;28;20033;-60
2022/12/14 06:38:11;;;;;;;40.65;23.85;;;;;;;-7.93;100.00;158520.41;5030932;28;20025;-62
2022/12/14 06:40:36;;;;;;;39.50;22.10;;;;;;;-8.04;100.00;158493.75;5029843;28;20045;-60
2022/12/14 06:43:02;;;;;;;33.65;22.50;;;;;;;-8.02;100.00;158497.75;5031037;28;20020;-60
2022/12/14 06:45:28;;;;;;;32.65;21.33;;;;;;;-8.04;100.00;158492.47;5030730;28;20430;-59
2022/12/14 06:47:53;;;;;;;33.67;18.75;;;;;;;-8.07;100.00;158484.44;5029222;28;20091;-60
2022/12/14 06:50:19;;;;;;;37.33;21.17;;;;;;;-8.09;100.00;158480.47;5031211;28;20064;-60
2022/12/14 06:52:48;;;;;;;28.13;19.02;;;;;;;-8.13;100.00;158469.78;5029468;28;20447;-60
2022/12/14 06:55:13;;;;;;;;;;;;;;;-8.19;100.00;158453.81;5031398;28;20468;-59
2022/12/14 06:57:38;;;;;;;30.73;19.00;;;;;;;-8.20;100.00;158451.13;5029556;28;19913;-59
2022/12/14 07:00:04;;;;;;;34.38;22.27;;;;;;;-8.30;100.00;158427.16;5030844;28;20021;-59
2022/12/14 07:02:29;;;;;;;34.33;20.58;;;;;;;-8.35;100.00;158413.88;5029486;28;20231;-59
2022/12/14 07:04:55;;;;;;;36.45;19.48;;;;;;;-8.41;100.00;158397.91;5030655;28;20026;-60
2022/12/14 07:07:20;;;;;;;43.45;21.23;;;;;;;-8.44;100.00;158389.88;5029425;28;20068;-60
2022/12/14 07:09:45;;;;;;;32.85;18.48;;;;;;;-8.44;100.00;158389.88;5030465;28;20021;-59
2022/12/14 07:12:11;;;;;;;40.88;24.50;;;;;;;-8.39;100.00;158401.88;5029201;28;20034;-60
2022/12/14 07:14:36;;;;;;;37.47;20.25;;;;;;;-8.37;100.00;158407.22;5030901;28;20021;-59
2022/12/14 07:17:01;;;;;;;37.15;23.70;;;;;;;-8.33;100.00;158419.19;5028811;28;20472;-59
2022/12/14 07:19:27;;;;;;;42.70;22.13;;;;;;;-8.30;100.00;158427.16;5030237;28;20018;-60
2022/12/14 07:21:52;;;;;;;28.30;20.25;;;;;;;-8.31;100.00;158423.19;5029177;28;20038;-59
2022/12/14 07:24:17;;;;;;;39.80;21.65;;;;;;;-8.32;100.00;158420.50;5030483;28;20036;-59
2022/12/14 07:26:43;;;;;;;29.58;19.10;;;;;;;-8.36;100.00;158411.19;5028149;28;20045;-59
2022/12/14 07:29:10;;;;;;;41.85;22.27;;;;;;;-8.33;100.00;158419.19;5030323;28;20025;-59
2022/12/14 07:31:36;;;;;;;31.73;19.90;;;;;;;-8.30;100.00;158425.84;5030671;28;20069;-60
2022/12/14 07:34:01;;;;;;;43.20;21.10;;;;;;;-8.32;100.00;158421.88;5034466;28;20044;-60
2022/12/14 07:36:28;;;;;;;41.15;20.73;;;;;;;-8.36;100.00;158411.19;5033364;28;20524;-59
2022/12/14 07:38:56;;;;;;;40.15;21.60;;;;;;;-8.42;100.00;158395.22;5034082;28;20025;-60
2022/12/14 07:41:26;;;;;;;;;;;;;;;-8.48;100.00;158380.63;5033634;28;20103;-59
2022/12/14 07:43:53;;;;;;;31.88;21.65;;;;;;;-8.52;100.00;158368.63;5034678;28;19916;-60
2022/12/14 07:46:21;;;;;;;35.15;21.73;;;;;;;-8.58;100.00;158354.03;5032617;28;20062;-59
2022/12/14 07:48:52;;;;;;;24.33;17.33;;;;;;;-8.70;100.00;158322.03;5032844;28;20024;-60
2022/12/14 07:51:20;;;;;;;37.58;22.38;;;;;;;-8.76;100.00;158307.44;5032552;28;20128;-59
2022/12/14 07:53:46;;;;;;;39.75;19.85;;;;;;;-8.83;100.00;158288.81;5034106;28;20021;-60
2022/12/14 07:56:20;;;;;;;27.90;17.17;;;;;;;-8.91;100.00;158267.50;5032706;28;20399;-60
2022/12/14 07:58:45;;;;;;;31.92;17.90;;;;;;;-8.96;100.00;158255.53;5034438;28;20311;-59
2022/12/14 08:01:14;;;;;;;32.53;19.75;;;;;;;-9.05;100.00;158231.56;5030057;28;20128;-60
2022/12/14 08:03:41;;;;;;;22.45;16.65;;;;;;;-9.13;100.00;158211.63;5032381;28;20028;-60
2022/12/14 08:06:09;;;;;;;30.67;22.42;;;;;;;-9.16;100.00;158204.97;5032247;28;20061;-59
2022/12/14 08:08:34;;;;;;;37.80;20.15;;;;;;;-9.15;100.00;158207.59;5032931;28;20025;-59
2022/12/14 08:11:00;;;;;;;29.15;21.50;;;;;;;-9.14;100.00;158208.97;5031177;28;20527;-59
2022/12/14 08:13:25;;;;;;;34.13;20.42;;;;;;;-9.17;100.00;158200.94;5033660;28;20033;-59
2022/12/14 08:15:50;;;;;;;35.85;22.33;;;;;;;-9.14;100.00;158208.97;5032113;28;20032;-59
2022/12/14 08:18:16;;;;;;;39.17;21.00;;;;;;;-9.15;100.00;158206.28;5033611;28;20032;-59
2022/12/14 08:20:41;;;;;;;31.45;19.58;;;;;;;-9.12;100.00;158215.59;5032434;28;20033;-59
2022/12/14 08:23:06;;;;;;;41.80;26.42;;;;;;;-9.10;100.00;158220.94;5033228;28;20013;-59
2022/12/14 08:25:32;;;;;;;30.85;20.20;;;;;;;-9.10;100.00;158219.56;5033670;28;20029;-59
2022/12/14 08:27:57;;;;;;;29.92;20.98;;;;;;;-9.06;100.00;158228.88;5031905;28;20412;-59
2022/12/14 08:30:23;;;;;;;35.75;20.75;;;;;;;-9.08;100.00;158224.91;5028458;28;20116;-59
2022/12/14 08:32:48;;;;;;;40.78;23.45;;;;;;;-9.09;100.00;158222.25;5031709;28;20041;-59
2022/12/14 08:35:13;;;;;;;42.17;23.25;;;;;;;-9.08;100.00;158224.91;5033297;28;20030;-59
2022/12/14 08:37:39;;;;;;;38.28;23.73;;;;;;;-9.04;100.00;158234.22;5031528;28;20044;-59
2022/12/14 08:40:05;;;;;;;37.13;23.05;;;;;;;-9.05;100.00;158232.91;5033527;28;20022;-59
2022/12/14 08:42:30;;;;;;;43.30;21.90;;;;;;;-8.97;100.00;158254.16;5031452;28;20484;-59
2022/12/14 08:44:55;;;;;;;36.35;21.73;;;;;;;-8.96;100.00;158256.84;5032204;28;20065;-60
2022/12/14 08:47:21;;;;;;;40.10;22.02;;;;;;;-8.89;100.00;158272.78;5031496;28;20046;-59
2022/12/14 08:49:46;;;;;;;34.60;20.38;;;;;;;-8.93;100.00;158264.84;5033528;28;20032;-59
2022/12/14 08:52:11;;;;;;;32.08;20.30;;;;;;;-8.96;100.00;158255.53;5030112;28;20042;-59
2022/12/14 08:54:37;;;;;;;43.95;22.27;;;;;;;-8.98;100.00;158251.53;5032817;28;20389;-58
2022/12/14 08:57:02;;;;;;;39.30;21.40;;;;;;;-8.95;100.00;158259.50;5031503;28;20081;-58
2022/12/14 08:59:28;;;;;;;32.38;22.60;;;;;;;-8.82;100.00;158291.44;5032799;28;20029;-58
2022/12/14 09:01:53;;;;;;;30.00;20.38;;;;;;;-8.56;100.00;158358.00;5031598;28;20496;-59
2022/12/14 09:04:19;;;;;;;37.97;21.65;;;;;;;-8.20;100.00;158451.13;5033013;28;20095;-58
2022/12/14 09:06:44;;;;;;;30.73;21.77;;;;;;;-7.91;100.00;158525.72;5031396;28;20095;-58
2022/12/14 09:09:10;;;;;;;33.95;22.00;;;;;;;-7.52;100.00;158626.97;5032794;28;20419;-58
2022/12/14 09:11:35;;;;;;;36.22;21.77;;;;;;;-6.89;100.00;158789.56;5031584;28;20041;-58
2022/12/14 09:14:01;;;;;;;33.83;23.33;;;;;;;-6.19;100.00;158970.88;5032146;28;20476;-58
2022/12/14 09:16:26;;;;;;;33.38;21.55;;;;;;;-5.50;100.00;159149.63;5031481;28;20061;-58
2022/12/14 09:18:52;;;;;;;36.60;22.58;;;;;;;-4.86;100.00;159313.81;5032738;28;20033;-58
2022/12/14 09:21:18;;;;;;;29.90;21.40;;;;;;;-4.56;100.00;159392.56;5030934;28;20037;-58
2022/12/14 09:23:44;;;;;;;42.58;31.02;;;;;;;-4.11;100.00;159507.44;5032961;28;20026;-58
2022/12/14 09:26:14;;;;;;;40.15;25.08;;;;;;;-3.87;100.00;159571.56;5029736;28;20041;-58
2022/12/14 09:28:41;;;;;;;57.30;35.67;;;;;;;-3.32;100.00;159713.25;5030123;28;20052;-58
2022/12/14 09:31:10;;;;;;;130.32;72.32;;;;;;;-3.20;100.00;159745.31;5029471;28;20113;-58
2022/12/14 09:33:36;;;;;;;116.50;66.40;;;;;;;-2.69;100.00;159876.34;5031323;28;20021;-58
2022/12/14 09:36:04;;;;;;;44.67;26.30;;;;;;;-2.22;100.00;159996.75;5029563;28;20037;-59
2022/12/14 09:38:31;;;;;;;79.28;45.13;;;;;;;-1.68;100.00;160137.25;5032387;28;20028;-58
2022/12/14 09:41:00;;;;;;;26.23;19.48;;;;;;;-1.76;100.00;160117.19;5030836;28;20033;-59
2022/12/14 09:43:45;;;;;;;32.10;20.67;;;;;;;-1.86;100.00;160090.41;5032108;28;20477;-59
2022/12/14 09:46:38;;;;;;;23.27;16.55;;;;;;;-2.17;100.00;160011.47;5030366;28;20049;-59
2022/12/14 09:49:04;;;;;;;28.65;19.08;;;;;;;-2.17;100.00;160010.13;5032032;28;20029;-59
2022/12/14 09:51:34;;;;;;;35.85;25.85;;;;;;;-1.84;100.00;160095.78;5030723;28;20393;-59
2022/12/14 09:54:09;;;;;;;26.95;19.48;;;;;;;-1.89;100.00;160083.72;5028096;28;20116;-59
2022/12/14 09:56:36;;;;;;;24.38;17.05;;;;;;;-1.20;100.00;160261.75;5030250;28;20045;-59
2022/12/14 09:59:02;;;;;;;27.17;19.98;;;;;;;-0.84;100.00;160356.81;5031263;28;20021;-59
2022/12/14 10:01:46;;;;;;;21.88;17.17;;;;;;;-1.16;100.00;160272.47;5030498;28;20053;-59
2022/12/14 10:04:21;;;;;;;26.83;17.63;;;;;;;-0.99;100.00;160316.66;5031698;28;20025;-59
2022/12/14 10:06:51;;;;;;;21.63;16.20;;;;;;;-0.57;100.00;160425.13;5030153;28;20048;-60
2022/12/14 10:09:41;;;;;;;24.40;19.10;;;;;;;-0.44;100.00;160459.97;5031666;28;20523;-57
2022/12/14 10:12:22;;;;;;;29.63;15.95;;;;;;;-0.77;100.00;160374.22;5029887;28;20099;-58
2022/12/14 10:15:12;;;;;;;22.90;15.25;;;;;;;-0.62;100.00;160413.06;5031539;28;20030;-58
2022/12/14 10:17:47;;;;;;;36.30;16.35;;;;;;;-0.85;100.00;160352.78;5030275;28;20048;-58
2022/12/14 10:20:24;;;;;;;20.63;17.33;;;;;;;-0.89;100.00;160342.09;5031051;28;20057;-58
2022/12/14 10:22:54;;;;;;;19.85;14.57;;;;;;;-0.69;100.00;160395.66;5030043;28;20037;-58
2022/12/14 10:25:26;;;;;;;21.42;15.45;;;;;;;-0.53;100.00;160437.22;5031552;28;20103;-57
2022/12/14 10:28:23;;;;;;;17.17;15.02;;;;;;;-0.93;100.00;160331.41;5029465;28;20607;-58
2022/12/14 10:30:53;;;;;;;20.20;18.05;;;;;;;-1.22;100.00;160257.72;5025337;28;20034;-59
2022/12/14 10:33:24;;;;;;;22.67;15.90;;;;;;;-1.50;100.00;160184.09;5031244;28;20086;-58
2022/12/14 10:35:53;;;;;;;22.33;14.95;;;;;;;-1.55;100.00;160172.03;5029629;28;20522;-59
2022/12/14 10:38:45;;;;;;;20.13;16.23;;;;;;;-1.51;100.00;160181.41;5031407;28;20686;-58
2022/12/14 10:41:39;;;;;;;23.08;14.55;;;;;;;-1.53;100.00;160176.09;5029530;28;20045;-60
2022/12/14 10:44:36;;;;;;;23.13;14.80;;;;;;;-1.80;100.00;160107.81;5028301;28;20144;-60
2022/12/14 10:47:17;;;;;;;23.20;15.23;;;;;;;-1.97;100.00;160062.31;5028846;28;20049;-59
2022/12/14 10:49:51;;;;;;;22.15;16.48;;;;;;;-2.09;100.00;160031.53;5031029;28;20025;-61
2022/12/14 10:52:24;;;;;;;26.95;16.73;;;;;;;-2.42;100.00;159945.94;5029095;28;20072;-61
2022/12/14 10:55:02;;;;;;;22.55;16.20;;;;;;;-2.37;100.00;159959.28;5030977;28;20407;-61
2022/12/14 10:57:27;;;;;;;23.27;15.98;;;;;;;-2.48;100.00;159929.84;5029099;28;20408;-61
2022/12/14 10:59:54;;;;;;;22.33;17.17;;;;;;;-2.72;100.00;159868.34;5031027;28;20022;-61
2022/12/14 11:02:21;;;;;;;19.42;16.73;;;;;;;-2.65;100.00;159887.09;5029695;28;20037;-61
2022/12/14 11:04:53;;;;;;;26.50;18.05;;;;;;;-2.68;100.00;159879.03;5027349;28;20029;-61
2022/12/14 11:07:21;;;;;;;26.98;18.42;;;;;;;-2.61;100.00;159897.75;5028670;28;20073;-61
2022/12/14 11:09:46;;;;;;;22.15;15.73;;;;;;;-2.61;100.00;159896.44;5030409;28;20021;-61
2022/12/14 11:12:11;;;;;;;32.78;15.93;;;;;;;-2.59;100.00;159901.75;5028560;28;20436;-61
2022/12/14 11:14:40;;;;;;;23.90;17.02;;;;;;;-2.45;100.00;159937.88;5030273;28;20595;-61
2022/12/14 11:17:33;;;;;;;22.42;17.73;;;;;;;-2.27;100.00;159986.03;5029308;28;20130;-61
2022/12/14 11:20:07;;;;;;;29.13;18.25;;;;;;;-2.14;100.00;160019.47;5030272;28;20029;-61
2022/12/14 11:22:44;;;;;;;23.10;16.13;;;;;;;-2.02;100.00;160050.25;5029331;28;20500;-61
2022/12/14 11:25:28;;;;;;;22.08;16.65;;;;;;;-1.73;100.00;160125.19;5030516;28;20485;-60
2022/12/14 11:27:53;;;;;;;25.38;15.57;;;;;;;-1.51;100.00;160182.78;5036560;28;20116;-61
2022/12/14 11:30:19;;;;;;;20.42;15.55;;;;;;;-1.52;100.00;160178.72;5033058;28;20025;-61
2022/12/14 11:32:47;;;;;;;21.67;16.90;;;;;;;-1.41;100.00;160208.19;5029388;28;20047;-60